Briefing drone pour Arpajon-sur-cere

Rechercher une autre localisation

Conditions de vol :


Nous sommes le : Lundi 24 janvier 2022
Il est 22:18 UTC (23:18 LT)

Lever de soleil : 06:51 UTC (07:51 LT)
Coucher de soleil : 17:12 UTC (18:12 LT)

Météo

L'essentiel des conditions de vol

VIGILANCE MÉTÉO FRANCE - Cantal (15)
Pas de vigilances particulieres
METAR de LFLW
LFLW 242200Z AUTO 10004KT CAVOK 00/M05 Q1030

Date d'émission: 24/01/2022
Heure d'émission: 22:00 UTC
Vent: 100° pour 4 KT (7 km/h)
Visibilité horizontale: > 10 km
Plafond : Plafond et visibilité OK (CAVOK)
Température: 0 °C
Point de rosée: -5 °C
Humidité: 69%
Pression (QNH): 1030 hPa
Prévision 24h pour Aurillac (1 km)
Vent : 50° pour 1 KT (4 km/h)
Temperature Maxi: 2 °C
Temperature Min: 2 °C
Humidité : 81%
Condition : Ciel dégagé



Warning: count(): Parameter must be an array or an object that implements Countable in /homepages/6/d509196549/htdocs/droneoxygene/briefing.php on line 743
WEBCAM POUR ARPAJON-SUR-CERE

Réglementation

Voler en sécurité

CARTES AERONAUTIQUE 1/500.000
CARTES VAC (LFLW)
SUP AIP




Chargement des AIP...
NOTAM (ARPAJON-SUR-CERE + Terrain à proximité / FIR )




Chargement des NOTAMS...
CONTACT PREFECTURE 15


Avertissement : Les données mises à disposition sont indicatives. Oxygène Drone ne pourra être tenu responsable de dégâts causés aux biens et aux personnes.